Time;durP1;ratioP1;P1;durP2;ratioP2;P2;SDS_P1;SDS_P2;PMS_P1;PMS_P2;Temp;Humidity;BMP_temperature;BMP_pressure;BME280_temperature;BME280_humidity;BME280_pressure;Samples;Min_cycle;Max_cycle;Signal;HPM_P1;HPM_P2
2022/03/11 00:01:03;;;;;;;3.10;2.90;;;26.20;39.70;;;;;;5035562;28;20442;-90
2022/03/11 00:03:30;;;;;;;3.10;2.90;;;26.20;39.70;;;;;;5035086;28;20488;-87
2022/03/11 00:05:57;;;;;;;3.13;2.93;;;26.20;39.70;;;;;;5035085;28;20446;-87
2022/03/11 00:08:24;;;;;;;3.10;2.90;;;26.10;39.60;;;;;;5034952;28;20946;-91
2022/03/11 00:10:51;;;;;;;2.87;2.67;;;26.10;39.70;;;;;;5035420;28;20793;-89
2022/03/11 00:13:18;;;;;;;3.10;2.90;;;26.20;39.80;;;;;;5034840;28;20442;-90
2022/03/11 00:15:44;;;;;;;3.33;3.00;;;26.10;39.70;;;;;;5035178;28;20445;-94
2022/03/11 00:18:13;;;;;;;3.37;3.17;;;26.10;39.70;;;;;;5034883;28;20438;-87
2022/03/11 00:20:40;;;;;;;3.37;3.03;;;26.10;39.70;;;;;;5035110;28;20451;-87
2022/03/11 00:23:07;;;;;;;3.00;2.80;;;26.10;39.70;;;;;;5035080;28;20449;-88
2022/03/11 00:25:34;;;;;;;2.47;2.30;;;26.10;39.80;;;;;;5033674;28;20837;-93
2022/03/11 00:28:01;;;;;;;3.30;3.10;;;26.10;39.70;;;;;;5034381;28;20536;-87
2022/03/11 00:30:28;;;;;;;2.87;2.67;;;26.10;39.70;;;;;;5034889;28;20443;-86
2022/03/11 00:32:55;;;;;;;3.10;2.90;;;26.10;39.80;;;;;;5034674;28;20504;-87
2022/03/11 00:35:23;;;;;;;3.10;2.80;;;26.10;39.80;;;;;;5034571;28;20493;-86
2022/03/11 00:37:50;;;;;;;3.70;3.40;;;26.10;39.90;;;;;;5034402;28;20446;-87
2022/03/11 00:40:17;;;;;;;3.00;2.80;;;26.00;39.80;;;;;;5034726;28;20442;-90
2022/03/11 00:42:44;;;;;;;2.63;2.43;;;26.00;39.80;;;;;;5034644;28;20449;-92
2022/03/11 00:45:23;;;;;;;2.60;2.40;;;26.00;39.90;;;;;;5091935;28;20588;-87
2022/03/11 00:47:49;;;;;;;3.00;2.80;;;26.00;39.80;;;;;;5091089;28;20429;-93
2022/03/11 00:50:16;;;;;;;3.13;2.93;;;26.00;39.90;;;;;;5091137;28;20447;-87
2022/03/11 00:52:43;;;;;;;3.30;3.00;;;26.00;39.90;;;;;;5090991;28;20444;-87
2022/03/11 00:55:11;;;;;;;3.03;2.77;;;26.00;39.90;;;;;;5090822;28;20468;-93
2022/03/11 00:57:38;;;;;;;2.90;2.70;;;26.00;39.90;;;;;;5090020;28;20489;-92
2022/03/11 01:00:06;;;;;;;2.50;2.30;;;26.00;39.90;;;;;;5091128;28;20440;-87
2022/03/11 01:02:38;;;;;;;2.73;2.53;;;26.00;39.90;;;;;;5090946;28;20429;-90
2022/03/11 01:05:07;;;;;;;2.80;2.60;;;26.00;40.00;;;;;;5090721;28;20515;-87
2022/03/11 01:07:35;;;;;;;3.03;2.83;;;26.00;39.90;;;;;;5090904;28;20444;-93
2022/03/11 01:10:02;;;;;;;2.37;2.27;;;26.00;39.90;;;;;;5090966;28;20451;-86
2022/03/11 01:12:29;;;;;;;2.87;2.67;;;26.00;40.00;;;;;;5090558;28;20436;-93
2022/03/11 01:14:56;;;;;;;2.77;2.53;;;26.00;40.00;;;;;;5090946;28;20451;-92
2022/03/11 01:17:23;;;;;;;2.80;2.60;;;26.00;40.00;;;;;;5090824;28;20452;-93
2022/03/11 01:19:51;;;;;;;2.53;2.33;;;26.00;39.90;;;;;;5090549;28;20440;-92
2022/03/11 01:22:18;;;;;;;2.53;2.40;;;25.90;39.90;;;;;;5090383;28;20935;-87
2022/03/11 01:24:45;;;;;;;3.13;2.80;;;25.90;39.90;;;;;;5090183;28;20498;-87
2022/03/11 01:27:12;;;;;;;2.43;2.23;;;26.00;40.00;;;;;;5090416;28;20444;-93
2022/03/11 01:29:39;;;;;;;3.10;2.90;;;25.90;39.90;;;;;;5090378;28;20436;-87
2022/03/11 01:32:06;;;;;;;2.70;2.50;;;25.90;39.90;;;;;;5090532;28;20447;-87
2022/03/11 01:34:33;;;;;;;2.77;2.57;;;25.90;39.90;;;;;;5090074;28;20542;-93
2022/03/11 01:37:01;;;;;;;3.00;2.80;;;25.90;39.90;;;;;;5090170;28;20931;-89
2022/03/11 01:39:28;;;;;;;2.93;2.73;;;25.90;39.90;;;;;;5090490;28;20465;-87
2022/03/11 01:41:55;;;;;;;2.60;2.40;;;25.90;39.90;;;;;;5090389;28;20446;-87
2022/03/11 01:44:24;;;;;;;2.43;2.23;;;25.90;40.20;;;;;;5089686;28;20494;-93
2022/03/11 01:46:51;;;;;;;2.30;2.20;;;25.80;39.80;;;;;;5090241;28;20436;-93
2022/03/11 01:49:17;;;;;;;2.37;2.27;;;25.90;39.90;;;;;;5090210;28;20442;-87
2022/03/11 01:51:45;;;;;;;2.63;2.47;;;25.80;39.80;;;;;;5089703;28;20448;-87
2022/03/11 01:54:13;;;;;;;2.50;2.27;;;25.90;39.90;;;;;;5089983;28;20472;-94
2022/03/11 01:56:41;;;;;;;2.80;2.50;;;25.90;39.90;;;;;;5076562;28;20441;-93
2022/03/11 01:59:11;;;;;;;3.10;2.90;;;25.80;39.80;;;;;;5076410;28;20440;-87
2022/03/11 02:01:37;;;;;;;2.50;2.30;;;25.80;39.80;;;;;;5076342;28;20439;-87
2022/03/11 02:04:05;;;;;;;2.10;2.00;;;25.80;39.90;;;;;;5076457;28;20508;-88
2022/03/11 02:06:32;;;;;;;2.50;2.30;;;25.80;39.80;;;;;;5076129;28;20445;-92
2022/03/11 02:09:01;;;;;;;2.37;2.17;;;25.80;39.80;;;;;;5076211;28;20520;-87
2022/03/11 02:11:29;;;;;;;2.40;2.20;;;25.80;39.80;;;;;;5076250;28;20443;-90
2022/03/11 02:13:58;;;;;;;2.93;2.63;;;25.80;39.90;;;;;;5076637;28;20939;-94
2022/03/11 02:16:27;;;;;;;2.60;2.40;;;25.80;39.90;;;;;;5076026;28;20954;-87
2022/03/11 02:18:54;;;;;;;2.17;1.97;;;25.80;39.80;;;;;;5076219;28;20437;-89
2022/03/11 02:21:23;;;;;;;2.67;2.47;;;25.70;39.80;;;;;;5075894;28;20433;-87
2022/03/11 02:23:52;;;;;;;2.70;2.50;;;25.70;39.80;;;;;;5076069;28;20488;-94
2022/03/11 02:26:21;;;;;;;2.70;2.50;;;25.80;39.80;;;;;;5076074;28;20448;-87
2022/03/11 02:28:49;;;;;;;2.57;2.37;;;25.70;39.80;;;;;;5075941;28;20440;-93
2022/03/11 02:31:16;;;;;;;2.33;2.13;;;25.70;39.80;;;;;;5075786;28;20793;-88
2022/03/11 02:33:43;;;;;;;2.60;2.40;;;25.70;39.80;;;;;;5075607;28;20943;-87
2022/03/11 02:36:11;;;;;;;2.17;2.07;;;25.70;39.80;;;;;;5075863;28;20453;-94
2022/03/11 02:38:38;;;;;;;2.20;2.03;;;25.70;39.80;;;;;;5075572;28;20908;-94
2022/03/11 02:41:06;;;;;;;2.00;1.90;;;25.70;39.80;;;;;;5075516;28;20451;-87
2022/03/11 02:43:33;;;;;;;2.40;2.20;;;25.70;39.80;;;;;;5075550;28;20495;-92
2022/03/11 02:46:01;;;;;;;2.40;2.20;;;25.70;39.80;;;;;;5075620;28;20811;-87
2022/03/11 02:48:27;;;;;;;2.50;2.30;;;25.70;39.80;;;;;;5075553;28;20441;-87
2022/03/11 02:50:54;;;;;;;2.00;1.90;;;25.70;39.80;;;;;;5075236;28;20940;-89
2022/03/11 02:53:21;;;;;;;2.47;2.37;;;25.70;39.80;;;;;;5075202;28;20464;-93
2022/03/11 02:55:48;;;;;;;2.40;2.20;;;25.60;39.70;;;;;;5075199;28;20475;-94
2022/03/11 02:58:16;;;;;;;2.37;2.17;;;25.60;39.80;;;;;;5075641;28;20796;-87
2022/03/11 03:00:43;;;;;;;1.80;1.70;;;25.70;39.80;;;;;;5075275;28;20443;-94
2022/03/11 03:03:10;;;;;;;2.10;2.00;;;25.60;39.80;;;;;;5075084;28;20448;-88
2022/03/11 03:05:37;;;;;;;2.00;1.90;;;25.60;39.80;;;;;;5075330;28;20991;-87
2022/03/11 03:08:04;;;;;;;2.10;1.90;;;25.70;39.80;;;;;;5073946;28;20924;-87
2022/03/11 03:10:30;;;;;;;2.00;1.77;;;25.60;39.80;;;;;;5075135;28;20946;-87
2022/03/11 03:12:57;;;;;;;2.00;1.90;;;25.60;39.80;;;;;;5074974;28;20463;-94
2022/03/11 03:15:25;;;;;;;2.73;2.53;;;25.60;39.70;;;;;;5074985;28;20437;-93
2022/03/11 03:17:52;;;;;;;2.40;2.20;;;25.60;39.80;;;;;;5075028;28;20436;-93
2022/03/11 03:20:19;;;;;;;2.30;2.20;;;25.60;39.70;;;;;;5075159;28;20444;-87
2022/03/11 03:22:46;;;;;;;2.30;2.20;;;25.60;39.70;;;;;;5074723;28;20451;-90
2022/03/11 03:25:13;;;;;;;2.20;2.10;;;25.60;39.70;;;;;;5074828;28;20515;-94
2022/03/11 03:27:39;;;;;;;2.50;2.30;;;25.60;39.70;;;;;;5074586;28;20437;-93
2022/03/11 03:30:07;;;;;;;2.40;2.20;;;25.60;39.70;;;;;;5074516;28;20455;-87
2022/03/11 03:32:36;;;;;;;2.30;2.10;;;25.60;39.70;;;;;;5074695;28;20540;-87
2022/03/11 03:35:02;;;;;;;1.80;1.70;;;25.60;39.80;;;;;;5074613;28;20449;-94
2022/03/11 03:37:29;;;;;;;1.80;1.70;;;25.60;39.70;;;;;;5074569;28;20437;-94
2022/03/11 03:39:56;;;;;;;2.57;2.37;;;25.60;39.80;;;;;;5074359;28;20518;-86
2022/03/11 03:42:23;;;;;;;2.20;2.00;;;25.50;39.70;;;;;;5074301;28;20451;-95
2022/03/11 03:44:50;;;;;;;2.63;2.43;;;25.60;39.70;;;;;;5074000;28;20562;-94
2022/03/11 03:47:17;;;;;;;2.07;1.97;;;25.50;39.70;;;;;;5074454;28;20440;-88
2022/03/11 03:49:45;;;;;;;2.10;2.00;;;25.50;39.70;;;;;;5074445;28;20433;-94
2022/03/11 03:52:12;;;;;;;2.10;2.00;;;25.50;39.70;;;;;;5074297;28;20444;-94
2022/03/11 03:54:39;;;;;;;2.40;2.20;;;25.50;39.70;;;;;;5073971;28;21006;-87
2022/03/11 03:57:06;;;;;;;1.97;1.87;;;25.50;39.70;;;;;;5073897;28;20451;-87
2022/03/11 03:59:34;;;;;;;2.00;1.90;;;25.50;39.70;;;;;;5073972;28;20447;-94
2022/03/11 04:02:00;;;;;;;1.90;1.80;;;25.50;39.70;;;;;;5074200;28;20841;-87
2022/03/11 04:04:27;;;;;;;2.40;2.20;;;25.50;39.70;;;;;;5074015;28;20502;-88
2022/03/11 04:06:55;;;;;;;2.20;2.10;;;25.50;39.70;;;;;;5074197;28;20807;-94
2022/03/11 04:09:22;;;;;;;2.40;2.20;;;25.50;39.60;;;;;;5073809;28;20448;-87
2022/03/11 04:11:49;;;;;;;2.10;2.00;;;25.50;39.70;;;;;;5073847;28;20448;-87
2022/03/11 04:14:16;;;;;;;2.00;1.90;;;25.50;39.70;;;;;;5073794;28;20820;-89
2022/03/11 04:16:42;;;;;;;1.90;1.70;;;25.50;39.60;;;;;;5073800;28;20463;-94
2022/03/11 04:19:09;;;;;;;1.90;1.80;;;25.50;39.70;;;;;;5073747;28;20814;-94
2022/03/11 04:21:36;;;;;;;1.70;1.60;;;25.50;39.70;;;;;;5073793;28;20966;-87
2022/03/11 04:24:12;;;;;;;2.20;2.00;;;25.40;39.70;;;;;;5073532;28;20832;-94
2022/03/11 04:26:40;;;;;;;2.03;1.93;;;25.40;39.70;;;;;;5073603;28;20441;-87
2022/03/11 04:29:07;;;;;;;1.90;1.80;;;25.40;39.70;;;;;;5073546;28;20448;-91
2022/03/11 04:31:34;;;;;;;2.33;2.13;;;25.40;39.70;;;;;;5073763;28;20436;-94
2022/03/11 04:34:02;;;;;;;2.40;1.90;;;25.40;39.60;;;;;;5073570;28;20432;-94
2022/03/11 04:36:31;;;;;;;2.70;2.50;;;25.50;39.70;;;;;;5073622;28;20437;-91
2022/03/11 04:38:58;;;;;;;2.13;2.03;;;25.40;39.70;;;;;;5073662;28;20441;-94
2022/03/11 04:41:26;;;;;;;2.40;2.20;;;25.40;39.70;;;;;;5073644;28;20440;-87
2022/03/11 04:43:53;;;;;;;1.93;1.80;;;25.40;39.70;;;;;;5073227;28;20979;-87
2022/03/11 04:46:19;;;;;;;2.53;2.33;;;25.40;39.70;;;;;;5073201;28;20491;-87
2022/03/11 04:48:47;;;;;;;2.40;2.00;;;25.40;39.70;;;;;;5073617;28;20448;-91
2022/03/11 04:51:14;;;;;;;1.90;1.80;;;25.40;39.70;;;;;;5073233;28;20441;-90
2022/03/11 04:53:41;;;;;;;2.00;1.90;;;25.40;39.60;;;;;;5073256;28;20465;-94
2022/03/11 04:56:08;;;;;;;2.27;2.07;;;25.40;39.60;;;;;;5073565;28;20437;-88
2022/03/11 04:58:36;;;;;;;2.03;1.93;;;25.30;39.70;;;;;;5073389;28;20778;-87
2022/03/11 05:01:03;;;;;;;2.33;2.13;;;25.50;39.80;;;;;;5073532;28;20445;-94
2022/03/11 05:03:30;;;;;;;2.50;2.30;;;25.30;39.60;;;;;;5073065;28;20810;-93
2022/03/11 05:05:56;;;;;;;2.53;2.33;;;25.50;39.70;;;;;;5073480;28;20481;-87
2022/03/11 05:08:23;;;;;;;2.90;2.30;;;25.40;39.70;;;;;;5073510;28;20449;-93
2022/03/11 05:10:50;;;;;;;2.30;2.10;;;25.30;39.60;;;;;;5073488;28;20978;-86
2022/03/11 05:13:17;;;;;;;2.40;2.20;;;25.30;39.60;;;;;;5073288;28;20445;-92
2022/03/11 05:15:45;;;;;;;4.10;2.93;;;25.30;39.60;;;;;;5073271;28;20429;-85
2022/03/11 05:18:12;;;;;;;2.50;2.30;;;25.30;39.60;;;;;;5073588;28;20437;-95
2022/03/11 05:20:39;;;;;;;3.13;2.63;;;25.20;39.50;;;;;;5073422;28;20433;-89
2022/03/11 05:23:06;;;;;;;2.23;2.13;;;25.40;40.30;;;;;;5073483;28;20745;-86
2022/03/11 05:25:33;;;;;;;2.33;2.10;;;25.30;39.70;;;;;;5073622;28;21010;-89
2022/03/11 05:28:00;;;;;;;2.23;2.13;;;25.50;39.80;;;;;;5074327;28;20437;-95
2022/03/11 05:30:26;;;;;;;4.53;4.23;;;25.30;39.80;;;;;;5074608;28;20444;-93
2022/03/11 05:32:54;;;;;;;3.33;2.90;;;25.30;38.70;;;;;;5077228;28;20463;-86
2022/03/11 05:35:21;;;;;;;3.37;2.37;;;25.20;38.40;;;;;;5076659;28;20437;-92
2022/03/11 05:37:48;;;;;;;3.00;2.80;;;25.30;39.50;;;;;;5076779;28;20935;-92
2022/03/11 05:40:15;;;;;;;2.70;2.50;;;25.30;40.30;;;;;;5076471;28;20440;-87
2022/03/11 05:42:42;;;;;;;2.60;2.40;;;25.30;39.80;;;;;;5076794;28;20432;-85
2022/03/11 05:45:10;;;;;;;2.67;2.40;;;25.30;39.80;;;;;;5075965;28;20595;-85
2022/03/11 05:47:38;;;;;;;2.70;2.50;;;25.30;39.80;;;;;;5076497;28;20437;-85
2022/03/11 05:50:07;;;;;;;2.23;2.13;;;25.30;39.90;;;;;;5076529;28;20460;-85
2022/03/11 05:52:37;;;;;;;2.60;2.40;;;25.30;39.90;;;;;;5076551;28;20464;-86
2022/03/11 05:55:05;;;;;;;2.53;2.33;;;25.30;39.90;;;;;;5076805;28;20496;-89
2022/03/11 05:57:32;;;;;;;2.30;2.03;;;25.30;39.90;;;;;;5076882;28;20443;-92
2022/03/11 05:59:59;;;;;;;2.77;2.57;;;25.20;39.90;;;;;;5076561;28;20814;-86
2022/03/11 06:02:25;;;;;;;3.00;2.80;;;25.20;39.90;;;;;;5076307;28;20810;-85
2022/03/11 06:04:52;;;;;;;2.50;2.40;;;25.30;40.00;;;;;;5076220;28;20845;-90
2022/03/11 06:07:20;;;;;;;2.70;2.50;;;25.20;39.90;;;;;;5076068;28;20446;-91
2022/03/11 06:09:47;;;;;;;2.20;2.10;;;25.20;39.90;;;;;;5076300;28;20952;-86
2022/03/11 06:12:15;;;;;;;2.40;2.20;;;25.30;40.00;;;;;;5076429;28;20440;-87
2022/03/11 06:14:42;;;;;;;3.00;2.77;;;25.30;40.10;;;;;;5076298;28;21145;-94
2022/03/11 06:17:09;;;;;;;2.93;2.73;;;25.20;40.00;;;;;;5076330;28;20441;-90
2022/03/11 06:19:36;;;;;;;2.60;2.40;;;25.30;40.20;;;;;;5076017;28;20532;-91
2022/03/11 06:22:04;;;;;;;2.77;2.57;;;25.20;39.60;;;;;;5076328;28;20452;-93
2022/03/11 06:24:33;;;;;;;2.60;2.40;;;25.20;39.80;;;;;;5075790;28;20464;-85
2022/03/11 06:27:00;;;;;;;2.50;2.30;;;25.20;40.20;;;;;;5075938;28;20983;-92
2022/03/11 06:29:26;;;;;;;2.33;2.13;;;25.20;40.30;;;;;;5075710;28;20539;-85
2022/03/11 06:31:53;;;;;;;2.60;2.50;;;25.20;40.30;;;;;;5075395;28;20449;-92
2022/03/11 06:34:21;;;;;;;2.80;2.60;;;25.20;40.30;;;;;;5075700;28;20491;-87
2022/03/11 06:36:48;;;;;;;2.60;2.40;;;25.20;40.40;;;;;;5076244;28;20480;-90
2022/03/11 06:39:15;;;;;;;3.00;2.80;;;25.20;40.40;;;;;;5075791;28;20473;-87
2022/03/11 06:41:43;;;;;;;3.27;2.70;;;25.20;40.30;;;;;;5075696;28;20449;-87
2022/03/11 06:44:10;;;;;;;2.40;2.30;;;25.20;40.20;;;;;;5076757;28;20472;-87
2022/03/11 06:46:36;;;;;;;3.10;2.80;;;25.20;40.40;;;;;;5075595;28;20500;-87
2022/03/11 06:49:05;;;;;;;3.70;2.40;;;25.20;40.60;;;;;;5076664;28;20445;-85
2022/03/11 06:51:32;;;;;;;2.70;2.50;;;25.40;40.70;;;;;;5075249;28;20445;-86
2022/03/11 06:53:58;;;;;;;6.43;3.00;;;25.40;40.60;;;;;;5074857;28;20480;-85
2022/03/11 06:56:25;;;;;;;2.80;2.60;;;25.20;40.40;;;;;;5075069;28;20476;-93
2022/03/11 06:58:53;;;;;;;2.70;2.50;;;25.20;40.50;;;;;;5075021;28;20444;-92
2022/03/11 07:01:20;;;;;;;2.40;2.20;;;25.20;40.50;;;;;;5074828;28;20456;-95
2022/03/11 07:03:47;;;;;;;3.30;3.10;;;25.20;40.50;;;;;;5074790;28;20455;-84
2022/03/11 07:06:14;;;;;;;3.20;2.90;;;25.20;39.50;;;;;;5074713;28;20484;-84
2022/03/11 07:08:41;;;;;;;2.67;2.47;;;25.20;39.20;;;;;;5075036;28;20444;-84
2022/03/11 07:11:07;;;;;;;3.20;2.90;;;25.20;39.50;;;;;;5074986;28;20444;-84
2022/03/11 07:13:34;;;;;;;2.80;2.47;;;25.30;39.40;;;;;;5074930;28;20441;-91
2022/03/11 07:16:04;;;;;;;3.47;3.13;;;25.20;39.40;;;;;;5076817;28;20453;-96
2022/03/11 07:18:31;;;;;;;2.83;2.53;;;25.30;39.50;;;;;;5074650;28;20479;-95
2022/03/11 07:21:01;;;;;;;2.80;2.60;;;25.40;40.70;;;;;;5081944;28;20449;-95
2022/03/11 07:23:31;;;;;;;2.60;2.37;;;25.50;40.20;;;;;;5078508;28;20551;-93
2022/03/11 07:25:58;;;;;;;2.53;2.33;;;25.50;40.00;;;;;;5075996;28;20495;-89
2022/03/11 07:28:27;;;;;;;2.77;2.57;;;25.60;40.00;;;;;;5074834;28;20443;-85
2022/03/11 07:30:54;;;;;;;2.70;2.50;;;25.60;40.00;;;;;;5074371;28;20488;-88
2022/03/11 07:33:22;;;;;;;2.90;2.70;;;25.60;39.90;;;;;;5074696;28;20471;-88
2022/03/11 07:35:49;;;;;;;2.80;2.60;;;25.60;39.90;;;;;;5074676;28;20803;-87
2022/03/11 07:38:15;;;;;;;2.97;2.77;;;25.60;39.90;;;;;;5074516;28;20541;-87
2022/03/11 07:40:42;;;;;;;3.10;2.90;;;25.60;39.90;;;;;;5074379;28;20445;-85
2022/03/11 07:43:09;;;;;;;3.30;3.10;;;25.50;39.80;;;;;;5075735;28;20441;-87
2022/03/11 07:45:37;;;;;;;3.00;2.80;;;25.60;39.80;;;;;;5081204;28;20484;-87
2022/03/11 07:48:04;;;;;;;2.87;2.67;;;25.50;39.70;;;;;;5074701;28;20536;-92
2022/03/11 07:50:35;;;;;;;2.93;2.73;;;25.60;39.70;;;;;;5067898;28;20817;-87
2022/03/11 07:53:02;;;;;;;2.80;2.60;;;25.60;39.60;;;;;;5063124;28;20453;-86
2022/03/11 07:55:29;;;;;;;2.70;2.50;;;25.60;39.50;;;;;;5074296;28;20460;-87
2022/03/11 07:57:56;;;;;;;3.10;2.80;;;25.60;39.30;;;;;;5074005;28;20448;-86
2022/03/11 08:00:22;;;;;;;4.57;2.50;;;25.70;39.30;;;;;;5074245;28;20441;-87
2022/03/11 08:02:49;;;;;;;2.27;2.07;;;25.70;39.20;;;;;;5073862;28;20441;-88
2022/03/11 08:05:17;;;;;;;2.17;2.07;;;25.60;39.10;;;;;;5073605;28;20441;-89
2022/03/11 08:07:49;;;;;;;2.67;2.47;;;25.70;39.20;;;;;;5074133;28;20445;-90
2022/03/11 08:10:16;;;;;;;2.87;2.67;;;25.70;39.20;;;;;;5073861;28;20449;-83
2022/03/11 08:12:44;;;;;;;3.17;2.97;;;25.70;39.20;;;;;;5073479;28;20433;-90
2022/03/11 08:15:12;;;;;;;2.90;2.70;;;25.70;39.30;;;;;;5074918;28;20448;-87
2022/03/11 08:17:40;;;;;;;2.40;2.30;;;25.70;39.40;;;;;;5073928;28;20472;-87
2022/03/11 08:20:08;;;;;;;2.90;2.70;;;25.70;39.40;;;;;;5073927;28;20790;-91
2022/03/11 08:22:35;;;;;;;3.00;2.80;;;25.70;39.40;;;;;;5074535;28;20449;-88
2022/03/11 08:25:05;;;;;;;2.70;2.50;;;25.80;39.50;;;;;;5073471;28;20556;-87
2022/03/11 08:27:32;;;;;;;2.77;2.57;;;25.90;39.50;;;;;;5073625;28;20484;-87
2022/03/11 08:29:58;;;;;;;2.80;2.60;;;25.90;39.50;;;;;;5073388;28;20945;-86
2022/03/11 08:32:25;;;;;;;2.80;2.60;;;25.90;39.50;;;;;;5076047;28;20445;-85
2022/03/11 08:34:53;;;;;;;3.30;3.10;;;26.00;39.50;;;;;;5078813;28;20445;-95
2022/03/11 08:37:20;;;;;;;3.27;3.07;;;26.00;39.50;;;;;;5059259;28;20461;-88
2022/03/11 08:39:47;;;;;;;3.07;2.83;;;26.00;39.40;;;;;;5053255;28;20457;-88
2022/03/11 08:42:16;;;;;;;2.90;2.70;;;26.10;39.50;;;;;;5053484;28;20456;-88
2022/03/11 08:44:42;;;;;;;3.27;3.07;;;26.20;39.40;;;;;;5053181;28;20572;-90
2022/03/11 08:47:10;;;;;;;3.17;2.97;;;26.30;39.40;;;;;;5053205;28;20488;-87
2022/03/11 08:49:36;;;;;;;2.83;2.63;;;26.40;39.40;;;;;;5053589;28;20784;-90
2022/03/11 08:52:04;;;;;;;3.07;2.87;;;26.40;39.20;;;;;;5054731;28;20507;-89
2022/03/11 08:54:31;;;;;;;3.10;2.90;;;26.50;39.30;;;;;;5053327;28;20462;-90
2022/03/11 08:56:59;;;;;;;2.97;2.77;;;26.50;39.20;;;;;;5053306;28;20446;-90
2022/03/11 08:59:30;;;;;;;3.23;3.03;;;26.50;39.20;;;;;;5055949;28;20458;-94
2022/03/11 09:01:57;;;;;;;2.77;2.57;;;26.60;39.30;;;;;;5057736;28;20426;-95
2022/03/11 09:08:00;;;;;;;2.90;2.70;;;26.70;39.10;;;;;;5060676;28;20598;-94
2022/03/11 09:10:27;;;;;;;3.00;2.80;;;26.80;39.20;;;;;;5057358;28;20947;-92
2022/03/11 09:12:54;;;;;;;3.20;3.00;;;26.80;39.20;;;;;;5058072;28;20445;-96
2022/03/11 09:15:22;;;;;;;3.77;2.97;;;26.80;39.20;;;;;;5061808;28;20983;-95
2022/03/11 09:18:14;;;;;;;3.10;2.90;;;26.80;39.20;;;;;;5057526;28;20446;-93
2022/03/11 09:20:41;;;;;;;2.90;2.70;;;26.90;39.20;;;;;;5057121;28;20437;-92
2022/03/11 09:23:10;;;;;;;3.40;3.10;;;26.80;39.30;;;;;;5056642;28;20449;-91
2022/03/11 09:25:37;;;;;;;2.93;2.73;;;26.90;39.30;;;;;;5057441;28;20511;-96
2022/03/11 09:28:04;;;;;;;2.80;2.60;;;26.90;39.40;;;;;;5057479;28;20449;-96
2022/03/11 09:30:33;;;;;;;3.43;3.23;;;26.90;39.40;;;;;;5058056;28;20446;-96
2022/03/11 09:33:00;;;;;;;3.20;3.00;;;26.90;39.40;;;;;;5067805;28;20464;-96
2022/03/11 09:35:26;;;;;;;3.30;3.10;;;27.00;39.50;;;;;;5058323;28;20445;-91
2022/03/11 09:37:53;;;;;;;3.20;3.00;;;26.90;39.40;;;;;;5056795;28;20446;-92
2022/03/11 09:40:20;;;;;;;2.77;2.57;;;26.90;39.50;;;;;;5059967;28;20438;-96
2022/03/11 09:42:50;;;;;;;2.87;2.67;;;27.00;39.50;;;;;;5065012;28;20445;-88
2022/03/11 09:45:20;;;;;;;3.37;3.07;;;27.00;39.60;;;;;;5057013;28;20560;-91
2022/03/11 09:47:48;;;;;;;2.80;2.60;;;27.00;39.60;;;;;;5057038;28;20489;-93
2022/03/11 09:50:15;;;;;;;3.73;3.40;;;27.00;39.60;;;;;;5056922;28;20442;-88
2022/03/11 09:52:43;;;;;;;3.00;2.80;;;27.00;39.60;;;;;;5056523;28;20463;-90
2022/03/11 09:55:10;;;;;;;2.90;2.70;;;27.00;39.60;;;;;;5056676;28;20538;-92
2022/03/11 09:57:37;;;;;;;3.27;3.07;;;27.10;39.70;;;;;;5058171;28;20483;-96
2022/03/11 10:00:05;;;;;;;3.53;3.33;;;27.10;39.70;;;;;;5060784;28;20469;-94
2022/03/11 10:02:32;;;;;;;2.80;2.60;;;27.10;39.70;;;;;;5056465;28;20815;-94
2022/03/11 10:05:01;;;;;;;3.40;3.20;;;27.10;39.70;;;;;;5056667;28;20515;-93
2022/03/11 10:07:29;;;;;;;2.87;2.67;;;27.10;39.70;;;;;;5057392;28;21000;-96
2022/03/11 10:09:56;;;;;;;3.60;3.30;;;27.10;39.70;;;;;;5057129;28;20450;-93
2022/03/11 10:12:25;;;;;;;3.70;3.40;;;27.20;39.80;;;;;;5057135;28;20448;-91
2022/03/11 10:14:58;;;;;;;3.30;3.10;;;27.20;39.80;;;;;;5056337;28;20806;-94
2022/03/11 10:17:25;;;;;;;3.27;3.07;;;27.30;39.80;;;;;;5055608;28;20533;-93
2022/03/11 10:19:56;;;;;;;3.07;2.87;;;27.30;39.80;;;;;;5063240;28;20544;-90
2022/03/11 10:22:28;;;;;;;3.90;3.60;;;27.40;39.80;;;;;;5055372;28;20454;-88
2022/03/11 10:24:55;;;;;;;3.03;2.83;;;27.40;39.80;;;;;;5055715;28;20453;-88
2022/03/11 10:27:23;;;;;;;3.20;2.90;;;27.40;39.80;;;;;;5055276;28;20491;-89
2022/03/11 10:29:51;;;;;;;3.50;3.30;;;27.40;39.80;;;;;;5055690;28;20442;-93
2022/03/11 10:32:24;;;;;;;2.87;2.67;;;27.50;39.90;;;;;;5055670;28;20461;-90
2022/03/11 10:34:51;;;;;;;3.07;2.87;;;27.50;39.90;;;;;;5055461;28;20441;-91
2022/03/11 10:37:18;;;;;;;2.93;2.73;;;27.50;39.80;;;;;;5055722;28;20538;-92
2022/03/11 10:39:47;;;;;;;2.87;2.67;;;27.60;39.80;;;;;;5055545;28;20474;-92
2022/03/11 10:42:16;;;;;;;2.93;2.73;;;27.60;39.90;;;;;;5055576;28;20796;-91
2022/03/11 10:44:58;;;;;;;3.23;3.03;;;27.60;39.80;;;;;;5056295;28;20473;-92
2022/03/11 10:47:27;;;;;;;3.90;3.50;;;27.70;39.90;;;;;;5055522;28;20483;-91
2022/03/11 10:49:56;;;;;;;3.13;2.83;;;27.70;39.90;;;;;;5056213;28;20457;-90
2022/03/11 10:52:31;;;;;;;3.40;3.10;;;27.70;39.90;;;;;;5058396;28;20456;-90
2022/03/11 10:55:01;;;;;;;2.53;2.07;;;27.80;39.90;;;;;;5058180;28;20472;-94
2022/03/11 10:57:36;;;;;;;3.20;2.90;;;27.80;39.90;;;;;;5055549;28;20445;-91
2022/03/11 11:00:20;;;;;;;3.50;3.20;;;27.80;39.90;;;;;;5063843;28;20459;-90
2022/03/11 11:02:48;;;;;;;3.17;2.97;;;27.90;39.90;;;;;;5064089;28;20446;-88
2022/03/11 11:05:15;;;;;;;4.10;3.70;;;27.80;38.50;;;;;;5062762;28;20457;-87
2022/03/11 11:07:42;;;;;;;4.00;3.60;;;27.70;38.10;;;;;;5063031;28;20559;-91
2022/03/11 11:10:12;;;;;;;3.10;2.90;;;27.70;38.10;;;;;;5065951;28;20845;-87
2022/03/11 11:12:42;;;;;;;3.63;3.40;;;27.70;38.40;;;;;;5057998;28;20468;-89
2022/03/11 11:15:10;;;;;;;3.20;3.00;;;27.70;38.60;;;;;;5063192;28;20441;-89
2022/03/11 11:17:39;;;;;;;4.23;3.93;;;27.60;38.50;;;;;;5068547;28;20451;-85
2022/03/11 11:20:16;;;;;;;3.07;2.87;;;27.60;38.50;;;;;;5074622;28;20436;-89
2022/03/11 11:22:44;;;;;;;6.23;5.63;;;27.50;38.40;;;;;;5053645;28;20441;-90
2022/03/11 11:25:15;;;;;;;8.37;7.67;;;27.50;37.00;;;;;;5054078;28;20836;-90
2022/03/11 11:27:42;;;;;;;9.13;8.17;;;27.50;35.60;;;;;;5053149;28;21022;-89
2022/03/11 11:30:10;;;;;;;8.53;7.70;;;27.50;34.80;;;;;;5054139;28;20441;-90
2022/03/11 11:32:38;;;;;;;9.03;8.10;;;27.40;34.50;;;;;;5054247;28;20445;-90
2022/03/11 11:35:25;;;;;;;9.43;8.50;;;27.40;34.40;;;;;;5054375;28;20444;-90
2022/03/11 11:37:53;;;;;;;8.93;8.13;;;27.40;34.00;;;;;;5054093;28;20442;-89
2022/03/11 11:40:23;;;;;;;10.10;9.10;;;27.30;34.20;;;;;;5053902;28;20434;-83
2022/03/11 11:43:26;;;;;;;7.00;6.40;;;27.30;33.90;;;;;;5054606;28;20449;-92
2022/03/11 11:45:58;;;;;;;7.60;6.90;;;27.30;35.70;;;;;;5054743;28;21002;-93
2022/03/11 11:48:57;;;;;;;6.60;6.10;;;27.20;35.20;;;;;;5054591;28;20481;-92
2022/03/11 11:51:44;;;;;;;7.50;6.80;;;27.20;35.40;;;;;;5054934;28;20469;-94
2022/03/11 11:54:11;;;;;;;9.80;8.90;;;27.20;35.30;;;;;;5054062;28;20472;-95
2022/03/11 11:56:43;;;;;;;11.47;8.50;;;27.10;34.80;;;;;;5056544;28;20438;-94
2022/03/11 11:59:16;;;;;;;9.47;8.57;;;27.10;34.00;;;;;;5054627;28;20448;-95
2022/03/11 12:01:43;;;;;;;9.23;8.30;;;27.00;33.90;;;;;;5054434;28;20434;-96
2022/03/11 12:04:23;;;;;;;8.83;8.07;;;27.00;33.90;;;;;;5054612;28;20863;-92
2022/03/11 12:06:54;;;;;;;9.97;9.07;;;27.00;34.20;;;;;;5054228;28;20484;-95
2022/03/11 12:09:47;;;;;;;9.90;8.80;;;27.00;33.70;;;;;;5054844;28;20453;-88
2022/03/11 12:12:58;;;;;;;7.97;7.10;;;27.00;33.90;;;;;;5054303;28;20438;-90
2022/03/11 12:15:24;;;;;;;10.00;7.87;;;26.90;34.50;;;;;;5053633;28;20928;-94
2022/03/11 12:17:56;;;;;;;8.27;7.47;;;26.90;35.00;;;;;;5054312;28;20442;-90
2022/03/11 12:20:46;;;;;;;9.23;7.03;;;26.90;35.20;;;;;;5054050;28;20434;-93
2022/03/11 12:23:19;;;;;;;9.43;7.07;;;27.00;34.90;;;;;;5053716;28;20972;-91
2022/03/11 12:25:48;;;;;;;7.87;6.97;;;26.90;35.10;;;;;;5053570;28;20434;-93
2022/03/11 12:28:17;;;;;;;10.73;7.60;;;27.00;35.40;;;;;;5054372;28;20562;-90
2022/03/11 12:30:54;;;;;;;8.40;7.67;;;27.00;35.40;;;;;;5053786;28;20442;-89
2022/03/11 12:33:22;;;;;;;8.87;8.17;;;27.00;35.30;;;;;;5053352;28;20452;-87
2022/03/11 12:35:52;;;;;;;8.13;7.33;;;26.90;34.90;;;;;;5054928;28;20484;-96
2022/03/11 12:38:21;;;;;;;7.70;7.00;;;27.00;35.00;;;;;;5057230;28;20441;-92
2022/03/11 12:40:49;;;;;;;7.30;6.60;;;27.00;35.60;;;;;;5064635;28;20429;-96
2022/03/11 12:43:20;;;;;;;7.87;7.10;;;27.00;35.90;;;;;;5075520;28;20499;-96
2022/03/11 12:45:49;;;;;;;8.87;7.97;;;27.00;36.00;;;;;;5076867;28;20920;-92
2022/03/11 12:48:18;;;;;;;8.20;7.40;;;27.00;35.60;;;;;;5066369;28;20495;-89
2022/03/11 12:50:46;;;;;;;9.93;8.80;;;27.00;35.20;;;;;;5053829;28;20476;-91
2022/03/11 12:53:13;;;;;;;11.33;9.80;;;27.00;35.40;;;;;;5058033;28;20505;-92
2022/03/11 12:55:42;;;;;;;16.20;7.53;;;27.00;35.30;;;;;;5053740;28;20924;-92